Time;durP1;ratioP1;P1;durP2;ratioP2;P2;SDS_P1;SDS_P2;PMS_P1;PMS_P2;Temp;Humidity;BMP_temperature;BMP_pressure;BME280_temperature;BME280_humidity;BME280_pressure;Samples;Min_cycle;Max_cycle;Signal;HPM_P1;HPM_P2
2023/02/26 00:02:20;;;;;;;;;;;;;;;25.00;38.60;93326.53;5054866;28;7026;-63
2023/02/26 00:04:46;;;;;;;;;;;;;;;24.99;39.07;93327.06;5061911;28;7304;-63
2023/02/26 00:07:17;;;;;;;;;;;;;;;25.00;38.69;93325.78;5088321;28;9276;-63
2023/02/26 00:09:42;;;;;;;;;;;;;;;25.00;38.49;93328.53;5082357;28;7020;-63
2023/02/26 00:12:14;;;;;;;;;;;;;;;24.97;39.11;93327.56;5075139;28;7071;-63
2023/02/26 00:14:43;;;;;;;;;;;;;;;24.98;38.63;93325.56;5073596;28;9023;-63
2023/02/26 00:21:05;;;;;;;;;;;;;;;25.01;38.46;93327.25;4992909;28;7191;-64
2023/02/26 00:23:47;;;;;;;;;;;;;;;25.01;38.89;93327.97;4984915;28;9597;-62
2023/02/26 00:26:54;;;;;;;;;;;;;;;25.01;38.10;93322.47;5006168;28;7139;-61
2023/02/26 00:29:35;;;;;;;;;;;;;;;25.02;38.89;93328.72;5002235;28;8884;-62
2023/02/26 00:32:21;;;;;;;;;;;;;;;25.01;38.73;93322.47;4993942;28;8503;-61
2023/02/26 00:34:50;;;;;;;;;;;;;;;25.02;38.76;93328.72;4973555;28;7047;-61
2023/02/26 00:37:55;;;;;;;;;;;;;;;25.01;38.34;93321.75;4975753;28;9042;-62
2023/02/26 00:40:27;;;;;;;;;;;;;;;24.99;38.71;93325.03;4985736;28;7421;-61
2023/02/26 00:42:57;;;;;;;;;;;;;;;24.99;38.40;93336.03;4993771;28;7248;-61
2023/02/26 00:45:23;;;;;;;;;;;;;;;24.99;39.05;93325.03;4975347;28;7556;-62
2023/02/26 00:47:52;;;;;;;;;;;;;;;24.99;38.51;93324.31;4980058;28;7015;-62
2023/02/26 00:50:39;;;;;;;;;;;;;;;24.98;38.74;93333.81;4994697;28;7004;-61
2023/02/26 00:53:25;;;;;;;;;;;;;;;24.98;38.42;93339.31;4995280;28;7132;-61
2023/02/26 00:56:04;;;;;;;;;;;;;;;24.97;38.37;93329.59;4988409;28;9422;-61
2023/02/26 01:02:45;;;;;;;;;;;;;;;24.97;38.55;93326.84;5082262;28;9085;-61
2023/02/26 01:05:12;;;;;;;;;;;;;;;24.96;38.65;93325.34;5087479;28;9106;-61
2023/02/26 01:08:25;;;;;;;;;;;;;;;24.96;38.19;93325.34;5064327;28;9061;-61
2023/02/26 01:11:21;;;;;;;;;;;;;;;24.96;38.50;93319.84;4979332;28;8725;-62
2023/02/26 01:14:17;;;;;;;;;;;;;;;24.95;38.75;93326.63;4958460;28;8939;-62
2023/02/26 01:17:28;;;;;;;;;;;;;;;24.95;39.06;93324.63;4877600;29;9289;-62
2023/02/26 01:20:34;;;;;;;;;;;;;;;24.95;38.50;93335.63;4885961;29;7037;-62
2023/02/26 01:23:30;;;;;;;;;;;;;;;24.95;38.45;93326.63;4875520;29;7043;-62
2023/02/26 01:26:24;;;;;;;;;;;;;;;24.94;39.28;93333.41;4859305;29;7647;-61
2023/02/26 01:29:00;;;;;;;;;;;;;;;24.94;38.99;93333.41;4863477;29;7152;-61
2023/02/26 01:31:39;;;;;;;;;;;;;;;24.96;38.61;93330.84;4867751;29;8812;-62
2023/02/26 01:34:45;;;;;;;;;;;;;;;24.95;38.97;93329.38;4885240;29;9091;-61
2023/02/26 01:37:26;;;;;;;;;;;;;;;24.94;38.55;93319.66;4873573;29;6976;-61
2023/02/26 01:40:31;;;;;;;;;;;;;;;24.94;38.31;93325.91;4877875;29;7074;-61
2023/02/26 01:43:22;;;;;;;;;;;;;;;24.93;39.28;93326.41;4866411;29;9022;-61
2023/02/26 01:46:45;;;;;;;;;;;;;;;24.93;38.46;93326.41;4866104;29;7293;-61
2023/02/26 01:49:18;;;;;;;;;;;;;;;24.92;38.89;93330.44;4890423;29;8729;-62
2023/02/26 01:52:36;;;;;;;;;;;;;;;24.94;38.17;93330.66;4923979;29;7394;-62
2023/02/26 01:55:06;;;;;;;;;;;;;;;24.93;38.46;93326.41;4980533;28;9316;-61
2023/02/26 01:57:34;;;;;;;;;;;;;;;24.92;38.65;93325.69;4972307;28;9173;-61
2023/02/26 02:00:00;;;;;;;;;;;;;;;24.93;38.40;93334.66;4968974;28;7122;-61
2023/02/26 02:02:26;;;;;;;;;;;;;;;24.93;39.10;93326.41;4966868;28;7085;-61
2023/02/26 02:04:52;;;;;;;;;;;;;;;24.91;38.54;93324.19;4965799;28;9123;-61
2023/02/26 02:07:52;;;;;;;;;;;;;;;24.95;38.44;93323.88;4984012;28;9445;-61
2023/02/26 02:10:31;;;;;;;;;;;;;;;24.95;38.40;93329.38;4974449;28;9015;-61
2023/02/26 02:13:35;;;;;;;;;;;;;;;24.94;38.55;93333.41;4959765;28;9063;-61
2023/02/26 02:16:06;;;;;;;;;;;;;;;24.92;38.37;93322.94;4972462;28;9092;-61
2023/02/26 02:19:21;;;;;;;;;;;;;;;24.92;39.09;93320.19;4981925;28;9202;-62
2023/02/26 02:22:00;;;;;;;;;;;;;;;24.93;38.86;93326.41;4880156;29;7266;-61
2023/02/26 02:25:02;;;;;;;;;;;;;;;24.94;38.83;93322.41;4879371;29;8970;-62
2023/02/26 02:27:40;;;;;;;;;;;;;;;24.94;38.50;93316.91;4895353;29;6937;-61
2023/02/26 02:30:56;;;;;;;;;;;;;;;24.94;39.32;93317.66;4890988;29;9168;-62
2023/02/26 02:33:42;;;;;;;;;;;;;;;24.93;38.48;93307.16;4856618;29;9542;-62
2023/02/26 02:36:31;;;;;;;;;;;;;;;24.93;38.55;93316.16;4864815;29;8998;-62
2023/02/26 02:39:30;;;;;;;;;;;;;;;24.92;38.50;93302.94;4855726;29;9014;-62
2023/02/26 02:42:26;;;;;;;;;;;;;;;24.92;38.39;93308.44;4861090;29;7280;-61
2023/02/26 02:45:13;;;;;;;;;;;;;;;24.91;39.10;93302.19;4861451;29;7240;-62
2023/02/26 02:47:46;;;;;;;;;;;;;;;24.90;38.99;93311.72;4926663;28;8702;-62
2023/02/26 02:50:34;;;;;;;;;;;;;;;24.91;38.51;93312.44;4932886;29;7100;-61
2023/02/26 02:53:20;;;;;;;;;;;;;;;24.92;39.29;93316.69;4932698;29;7052;-62
2023/02/26 02:56:11;;;;;;;;;;;;;;;24.91;38.40;93313.19;4928735;29;8519;-61
2023/02/26 02:59:16;;;;;;;;;;;;;;;24.92;38.52;93313.94;4975864;28;7245;-61
2023/02/26 03:01:45;;;;;;;;;;;;;;;24.91;38.80;93304.19;4970152;28;9160;-62
2023/02/26 03:04:28;;;;;;;;;;;;;;;24.91;38.78;93312.44;4991116;28;9024;-61
2023/02/26 03:07:11;;;;;;;;;;;;;;;24.87;38.19;93306.53;4996668;28;7300;-62
2023/02/26 03:10:10;;;;;;;;;;;;;;;24.91;38.41;93318.69;5041320;28;7665;-61
2023/02/26 03:12:49;;;;;;;;;;;;;;;24.86;38.76;93310.56;5016826;28;7114;-61
2023/02/26 03:15:55;;;;;;;;;;;;;;;24.92;39.17;93313.94;5018131;28;9340;-61
2023/02/26 03:18:43;;;;;;;;;;;;;;;24.92;38.58;93306.44;4956816;28;8710;-62
2023/02/26 03:21:34;;;;;;;;;;;;;;;24.89;38.21;93304.75;4963543;28;7067;-61
2023/02/26 03:24:54;;;;;;;;;;;;;;;24.90;38.88;93306.22;4965952;28;7252;-61
2023/02/26 03:27:51;;;;;;;;;;;;;;;24.89;38.55;93304.75;4932042;28;9601;-62
2023/02/26 03:30:51;;;;;;;;;;;;;;;24.88;38.74;93313.53;4916234;29;9563;-62
2023/02/26 03:36:47;;;;;;;;;;;;;;;24.91;38.87;93312.44;4908129;29;9013;-61
2023/02/26 03:39:33;;;;;;;;;;;;;;;24.90;38.51;93311.72;4898722;29;9263;-62
2023/02/26 03:42:31;;;;;;;;;;;;;;;24.89;38.31;93315.75;4912145;29;7225;-61
2023/02/26 03:45:34;;;;;;;;;;;;;;;24.89;39.20;93309.50;4909749;29;7658;-61
2023/02/26 03:48:29;;;;;;;;;;;;;;;24.88;38.62;93302.53;5090475;28;7177;-59
2023/02/26 03:51:08;;;;;;;;;;;;;;;24.89;39.08;93304.00;5085360;28;9064;-59
2023/02/26 03:54:10;;;;;;;;;;;;;;;24.90;38.65;93305.50;5073717;28;9368;-60
2023/02/26 03:56:53;;;;;;;;;;;;;;;24.84;38.74;93296.63;5069449;28;7020;-59
2023/02/26 03:59:20;;;;;;;;;;;;;;;24.87;38.51;93301.03;5076838;28;8831;-62
2023/02/26 04:02:33;;;;;;;;;;;;;;;24.87;39.06;93312.03;5075301;28;8064;-62
2023/02/26 04:05:29;;;;;;;;;;;;;;;24.87;38.35;93307.28;4998626;28;7342;-62
2023/02/26 04:08:03;;;;;;;;;;;;;;;24.86;39.20;93311.28;4995801;28;7216;-61
2023/02/26 04:10:46;;;;;;;;;;;;;;;24.87;38.73;93312.78;4992818;28;8971;-62
2023/02/26 04:13:33;;;;;;;;;;;;;;;24.88;38.33;93332.78;5008325;28;9197;-62
2023/02/26 04:16:18;;;;;;;;;;;;;;;24.88;38.39;93327.28;5007652;28;7626;-62
2023/02/26 04:18:59;;;;;;;;;;;;;;;24.87;38.93;93334.03;5007668;28;7098;-62
2023/02/26 04:21:42;;;;;;;;;;;;;;;24.89;38.35;93326.00;4975217;28;7654;-62
2023/02/26 04:24:17;;;;;;;;;;;;;;;24.87;38.90;93334.03;4999756;28;9074;-62
2023/02/26 04:26:49;;;;;;;;;;;;;;;24.89;38.84;93335.00;5004233;28;7847;-62
2023/02/26 04:29:18;;;;;;;;;;;;;;;24.89;38.74;93323.25;4983336;28;7569;-62
2023/02/26 04:32:32;;;;;;;;;;;;;;;24.88;38.17;93330.03;5000446;28;9500;-62
2023/02/26 04:35:07;;;;;;;;;;;;;;;24.88;38.68;93330.03;4989900;28;7148;-62
2023/02/26 04:38:10;;;;;;;;;;;;;;;24.88;38.68;93330.03;4989630;28;8967;-62
2023/02/26 04:40:36;;;;;;;;;;;;;;;24.87;38.67;93336.78;4918629;29;9335;-62
2023/02/26 04:43:04;;;;;;;;;;;;;;;24.89;38.36;93342.50;4994484;28;7023;-62
2023/02/26 04:45:30;;;;;;;;;;;;;;;24.87;38.64;93332.03;5017048;28;9475;-62
2023/02/26 04:47:56;;;;;;;;;;;;;;;24.86;38.44;93329.81;5023551;28;8660;-62
2023/02/26 04:50:22;;;;;;;;;;;;;;;24.87;38.62;93332.03;5014986;28;7239;-62
2023/02/26 04:52:50;;;;;;;;;;;;;;;24.87;38.48;93328.53;5008165;28;9334;-62
2023/02/26 04:55:16;;;;;;;;;;;;;;;24.87;38.47;93328.53;5020694;28;8956;-62
2023/02/26 04:58:14;;;;;;;;;;;;;;;24.87;38.76;93331.28;5023598;28;9050;-62
2023/02/26 05:00:58;;;;;;;;;;;;;;;24.83;38.49;93323.38;5007634;28;7250;-62
2023/02/26 05:03:49;;;;;;;;;;;;;;;24.88;38.48;93321.78;4997662;28;9095;-62
2023/02/26 05:09:48;;;;;;;;;;;;;;;24.84;38.92;93329.63;5010590;28;7287;-62
2023/02/26 05:12:25;;;;;;;;;;;;;;;24.85;38.28;93331.09;5006376;28;7417;-62
2023/02/26 05:14:57;;;;;;;;;;;;;;;24.84;38.93;93337.88;5027204;28;7282;-62
2023/02/26 05:17:26;;;;;;;;;;;;;;;24.85;38.14;93333.84;5044145;28;7242;-62
2023/02/26 05:20:00;;;;;;;;;;;;;;;24.84;38.57;93329.63;5045166;28;9374;-63
2023/02/26 05:22:32;;;;;;;;;;;;;;;24.84;39.23;93335.13;5048889;28;7356;-62
2023/02/26 05:25:22;;;;;;;;;;;;;;;24.83;38.51;93333.63;5049694;28;9121;-62
2023/02/26 05:28:24;;;;;;;;;;;;;;;24.85;39.07;93337.34;5062598;28;7269;-62
2023/02/26 05:31:09;;;;;;;;;;;;;;;24.85;38.30;93340.09;4998460;28;7396;-62
2023/02/26 05:34:31;;;;;;;;;;;;;;;24.85;38.94;93342.09;5009657;28;6982;-62
2023/02/26 05:37:18;;;;;;;;;;;;;;;24.88;39.23;93343.78;4973093;28;7036;-62
2023/02/26 05:39:44;;;;;;;;;;;;;;;24.89;38.97;93346.00;4958719;28;7209;-62
2023/02/26 05:42:19;;;;;;;;;;;;;;;24.92;38.77;93344.19;4954865;28;7826;-62
2023/02/26 05:44:56;;;;;;;;;;;;;;;24.89;38.65;93346.00;4939213;28;7055;-62
2023/02/26 05:47:24;;;;;;;;;;;;;;;24.88;38.72;93350.00;4944111;28;9075;-62
2023/02/26 05:50:06;;;;;;;;;;;;;;;24.88;39.00;93343.78;4963494;28;7196;-62
2023/02/26 05:52:40;;;;;;;;;;;;;;;24.86;38.50;93349.09;4960570;28;7246;-62
2023/02/26 05:55:10;;;;;;;;;;;;;;;24.87;38.18;93350.53;4951777;28;9321;-62
2023/02/26 05:57:46;;;;;;;;;;;;;;;24.87;38.45;93356.03;4944452;28;7255;-62
2023/02/26 06:00:32;;;;;;;;;;;;;;;24.88;38.74;93363.03;4953219;28;7881;-62
2023/02/26 06:03:01;;;;;;;;;;;;;;;24.86;38.58;93366.31;4953562;28;7264;-62
2023/02/26 06:05:27;;;;;;;;;;;;;;;24.87;38.56;93372.56;4949539;28;7374;-62
2023/02/26 06:07:53;;;;;;;;;;;;;;;24.86;38.33;93369.06;4953587;28;7321;-62
2023/02/26 06:10:19;;;;;;;;;;;;;;;24.86;39.12;93368.34;4970170;28;6832;-62
2023/02/26 06:12:50;;;;;;;;;;;;;;;24.85;38.27;93375.09;5062008;28;9033;-62
2023/02/26 06:15:18;;;;;;;;;;;;;;;24.84;39.08;93371.59;5054957;28;9267;-62
2023/02/26 06:17:46;;;;;;;;;;;;;;;24.87;38.95;93376.03;5031737;28;9424;-65
2023/02/26 06:20:12;;;;;;;;;;;;;;;24.88;39.11;93376.78;5046235;28;7032;-63
2023/02/26 06:22:38;;;;;;;;;;;;;;;24.89;38.30;93386.50;5047092;28;9057;-62
2023/02/26 06:25:05;;;;;;;;;;;;;;;24.93;38.53;93392.44;5032872;28;9075;-61
2023/02/26 06:27:37;;;;;;;;;;;;;;;24.90;38.17;93399.00;5050293;28;7930;-62
2023/02/26 06:30:43;;;;;;;;;;;;;;;24.89;38.34;93398.25;5046303;28;9465;-62
2023/02/26 06:33:09;;;;;;;;;;;;;;;24.90;38.18;93399.00;5066631;28;7336;-62
2023/02/26 06:35:35;;;;;;;;;;;;;;;24.89;38.40;93401.00;5061422;28;7471;-62
2023/02/26 06:38:29;;;;;;;;;;;;;;;24.85;39.10;93400.59;5063453;28;9488;-62
2023/02/26 06:41:00;;;;;;;;;;;;;;;24.87;38.26;93405.56;4988822;28;8923;-62
2023/02/26 06:43:28;;;;;;;;;;;;;;;24.89;38.32;93412.00;5006548;28;8824;-62
2023/02/26 06:45:59;;;;;;;;;;;;;;;24.89;38.70;93408.50;4998960;28;8692;-62
2023/02/26 06:48:54;;;;;;;;;;;;;;;24.90;38.54;93415.50;4990004;28;9557;-62
2023/02/26 06:51:39;;;;;;;;;;;;;;;24.95;39.07;93411.88;4937432;28;7262;-62
2023/02/26 06:54:24;;;;;;;;;;;;;;;24.97;38.30;93410.09;4942752;28;8818;-62
2023/02/26 06:57:20;;;;;;;;;;;;;;;24.97;38.55;93414.88;4921237;28;7376;-62
2023/02/26 06:59:59;;;;;;;;;;;;;;;24.95;38.74;93401.63;4953279;28;9040;-62
2023/02/26 07:02:25;;;;;;;;;;;;;;;24.98;38.46;93416.34;4932206;28;8451;-61
2023/02/26 07:04:53;;;;;;;;;;;;;;;24.97;38.75;93407.34;4929855;29;7282;-62
2023/02/26 07:07:19;;;;;;;;;;;;;;;24.99;38.10;93410.31;4945123;28;8792;-61
2023/02/26 07:09:46;;;;;;;;;;;;;;;24.99;38.41;93413.06;4932541;28;8761;-63
2023/02/26 07:12:13;;;;;;;;;;;;;;;25.00;38.66;93420.06;4933245;28;9059;-62
2023/02/26 07:15:27;;;;;;;;;;;;;;;24.99;38.04;93417.84;4935800;28;9341;-62
2023/02/26 07:18:05;;;;;;;;;;;;;;;24.99;38.53;93418.56;4872402;29;9015;-62
2023/02/26 07:20:48;;;;;;;;;;;;;;;24.98;38.44;93416.34;4863704;29;9042;-62
2023/02/26 07:23:14;;;;;;;;;;;;;;;24.97;38.35;93420.38;4859756;29;7584;-62
2023/02/26 07:25:40;;;;;;;;;;;;;;;24.93;38.19;93417.19;4864290;29;9062;-62
2023/02/26 07:28:06;;;;;;;;;;;;;;;24.94;38.14;93413.19;4911520;28;9205;-63
2023/02/26 07:30:33;;;;;;;;;;;;;;;24.93;38.60;93419.94;4946868;28;7270;-62
2023/02/26 07:33:16;;;;;;;;;;;;;;;24.91;38.53;93419.72;4951009;28;7044;-62
2023/02/26 07:35:53;;;;;;;;;;;;;;;24.90;38.27;93410.00;4928568;28;9000;-62
2023/02/26 07:38:29;;;;;;;;;;;;;;;24.91;38.91;93419.72;4951032;28;9009;-62
2023/02/26 07:41:28;;;;;;;;;;;;;;;24.90;38.55;93421.00;4946522;28;7029;-62
2023/02/26 07:44:03;;;;;;;;;;;;;;;24.89;38.98;93428.50;4916959;29;7289;-62
2023/02/26 07:46:39;;;;;;;;;;;;;;;24.86;38.63;93412.34;4925361;29;6986;-62
2023/02/26 07:49:20;;;;;;;;;;;;;;;24.87;38.77;93416.56;4919632;29;8635;-62
2023/02/26 07:51:58;;;;;;;;;;;;;;;24.85;38.66;93435.59;4921108;29;7037;-62
2023/02/26 07:54:25;;;;;;;;;;;;;;;24.86;39.22;93424.06;4985576;28;7189;-62
2023/02/26 07:57:18;;;;;;;;;;;;;;;24.84;39.33;93417.63;5027145;28;9037;-62
2023/02/26 07:59:53;;;;;;;;;;;;;;;24.83;39.11;93416.13;5021726;28;9295;-62
2023/02/26 08:02:24;;;;;;;;;;;;;;;24.90;38.51;93418.25;5019811;28;9619;-62
2023/02/26 08:05:01;;;;;;;;;;;;;;;24.95;38.67;93414.63;5005220;28;7058;-62
2023/02/26 08:07:37;;;;;;;;;;;;;;;24.95;38.15;93412.63;5014534;28;7307;-62
2023/02/26 08:11:02;;;;;;;;;;;;;;;24.97;38.47;93412.13;5011517;28;7060;-62
2023/02/26 08:13:36;;;;;;;;;;;;;;;25.01;38.47;93407.75;5009795;28;9194;-62
2023/02/26 08:16:02;;;;;;;;;;;;;;;25.03;38.06;93408.00;5007140;28;9343;-61
2023/02/26 08:18:48;;;;;;;;;;;;;;;24.96;38.58;93394.13;5009779;28;9040;-62
2023/02/26 08:21:23;;;;;;;;;;;;;;;24.98;37.56;93408.09;5045673;28;7275;-62
2023/02/26 08:24:02;;;;;;;;;;;;;;;24.94;38.21;93404.94;5046259;28;7504;-62
2023/02/26 08:26:29;;;;;;;;;;;;;;;24.97;37.71;93406.63;5040127;28;8759;-63
2023/02/26 08:29:02;;;;;;;;;;;;;;;25.10;37.72;93412.84;5049475;28;7290;-61
2023/02/26 08:31:30;;;;;;;;;;;;;;;25.19;37.81;93419.91;5049141;28;9753;-62
2023/02/26 08:34:00;;;;;;;;;;;;;;;25.20;37.59;93413.16;5052593;28;7292;-63
2023/02/26 08:36:35;;;;;;;;;;;;;;;25.17;37.90;93416.97;5054742;28;9731;-62
2023/02/26 08:39:37;;;;;;;;;;;;;;;25.11;37.46;93419.09;5051170;28;7451;-62
2023/02/26 08:42:07;;;;;;;;;;;;;;;25.08;37.94;93423.63;5003696;28;8316;-63
2023/02/26 08:45:03;;;;;;;;;;;;;;;25.04;37.98;93416.97;4996116;28;9003;-62
2023/02/26 08:47:31;;;;;;;;;;;;;;;25.02;38.57;93422.25;4923523;29;9101;-63
2023/02/26 08:50:10;;;;;;;;;;;;;;;25.01;38.01;93426.31;4906564;29;7047;-63
2023/02/26 08:52:38;;;;;;;;;;;;;;;24.97;38.66;93421.09;4901714;29;9012;-63
2023/02/26 08:55:07;;;;;;;;;;;;;;;24.99;38.41;93426.09;4918384;29;7029;-62
2023/02/26 08:57:34;;;;;;;;;;;;;;;24.97;38.58;93429.34;4898091;29;9065;-63
2023/02/26 09:00:15;;;;;;;;;;;;;;;24.95;38.93;93436.66;4910211;29;7645;-63
2023/02/26 09:02:41;;;;;;;;;;;;;;;24.94;38.40;93437.94;4896580;29;8702;-62
2023/02/26 09:05:16;;;;;;;;;;;;;;;24.95;39.17;93445.66;4895836;29;8727;-63
2023/02/26 09:07:52;;;;;;;;;;;;;;;24.93;39.06;93444.69;4895829;29;8063;-62
2023/02/26 09:10:18;;;;;;;;;;;;;;;24.89;39.36;93452.53;4929742;29;9130;-62
2023/02/26 09:12:51;;;;;;;;;;;;;;;24.91;39.66;93450.72;4918187;29;7230;-62
2023/02/26 09:15:19;;;;;;;;;;;;;;;24.91;39.20;93466.47;4904257;29;9299;-62
2023/02/26 09:17:48;;;;;;;;;;;;;;;24.93;39.29;93461.19;4949627;28;7176;-62
2023/02/26 09:20:24;;;;;;;;;;;;;;;24.94;38.75;93459.94;4968059;28;9129;-62
2023/02/26 09:22:50;;;;;;;;;;;;;;;24.92;39.14;93448.72;4976901;28;9173;-63
2023/02/26 09:25:27;;;;;;;;;;;;;;;24.91;38.95;93456.22;5068630;28;7292;-61
2023/02/26 09:27:57;;;;;;;;;;;;;;;24.89;39.33;93458.03;5056088;28;7267;-60
2023/02/26 09:30:29;;;;;;;;;;;;;;;24.89;38.96;93464.28;5056054;28;9461;-60
2023/02/26 09:33:02;;;;;;;;;;;;;;;24.88;39.30;93467.56;5050327;28;10163;-60
2023/02/26 09:35:29;;;;;;;;;;;;;;;24.86;39.37;93470.09;5045895;28;7300;-60
2023/02/26 09:38:03;;;;;;;;;;;;;;;24.88;39.19;93475.81;5049035;28;7434;-59
2023/02/26 09:40:42;;;;;;;;;;;;;;;24.85;39.51;93476.84;5051529;28;7431;-60
2023/02/26 09:43:42;;;;;;;;;;;;;;;24.87;38.80;93482.56;5051730;28;7182;-59
2023/02/26 09:46:21;;;;;;;;;;;;;;;24.84;39.74;93483.63;5069362;28;9071;-60
2023/02/26 09:48:54;;;;;;;;;;;;;;;24.84;39.83;93483.63;5056205;28;7036;-60
2023/02/26 09:51:24;;;;;;;;;;;;;;;24.86;39.83;93497.59;5055857;28;6987;-60
2023/02/26 09:53:52;;;;;;;;;;;;;;;24.85;39.26;93499.59;5048845;28;7502;-60
2023/02/26 09:56:35;;;;;;;;;;;;;;;24.84;38.84;93486.38;5049874;28;9026;-60
2023/02/26 09:59:04;;;;;;;;;;;;;;;24.85;39.32;93499.59;5043288;28;7237;-60
2023/02/26 10:01:44;;;;;;;;;;;;;;;24.84;39.47;93498.09;5050738;28;9436;-60
2023/02/26 10:04:48;;;;;;;;;;;;;;;24.87;39.47;93497.06;5059838;28;9686;-60
2023/02/26 10:07:44;;;;;;;;;;;;;;;24.88;38.92;93498.53;5045870;28;9320;-60
2023/02/26 10:10:51;;;;;;;;;;;;;;;24.89;38.61;93483.53;5064118;28;7384;-60
2023/02/26 10:13:42;;;;;;;;;;;;;;;24.87;39.24;93493.56;5013297;28;9059;-60
2023/02/26 10:16:14;;;;;;;;;;;;;;;24.87;39.79;93488.81;5005560;28;7362;-60
2023/02/26 10:18:49;;;;;;;;;;;;;;;24.88;39.16;93492.31;5019852;28;7018;-60
2023/02/26 10:21:38;;;;;;;;;;;;;;;24.90;39.50;93500.78;5006111;28;8627;-61
2023/02/26 10:24:37;;;;;;;;;;;;;;;24.89;38.74;93491.78;5026223;28;9288;-61
2023/02/26 10:27:15;;;;;;;;;;;;;;;24.89;38.98;93485.53;5010950;28;8783;-61
2023/02/26 10:30:12;;;;;;;;;;;;;;;24.88;38.82;93489.56;5010415;28;9663;-60
2023/02/26 10:33:05;;;;;;;;;;;;;;;24.89;39.76;93491.78;5008399;28;7033;-61
2023/02/26 10:35:41;;;;;;;;;;;;;;;24.90;39.47;93506.28;5000412;28;9433;-61
2023/02/26 10:38:22;;;;;;;;;;;;;;;24.90;39.55;93514.53;5005365;28;7428;-61
2023/02/26 10:41:02;;;;;;;;;;;;;;;24.91;38.80;93510.50;4998902;28;9077;-61
2023/02/26 10:43:39;;;;;;;;;;;;;;;24.91;39.49;93502.25;5003569;28;8899;-62
2023/02/26 10:46:16;;;;;;;;;;;;;;;24.91;39.53;93505.00;5011191;28;8109;-61
2023/02/26 10:48:58;;;;;;;;;;;;;;;24.91;39.44;93500.25;4998203;28;9005;-61
2023/02/26 10:51:34;;;;;;;;;;;;;;;24.91;39.42;93516.00;5031955;28;7689;-61
2023/02/26 10:54:16;;;;;;;;;;;;;;;24.91;39.77;93505.75;5040317;28;7451;-61
2023/02/26 10:56:42;;;;;;;;;;;;;;;24.95;38.89;93510.91;5045050;28;7035;-61
2023/02/26 10:59:08;;;;;;;;;;;;;;;24.95;39.75;93511.66;5038941;28;9525;-61
2023/02/26 11:01:42;;;;;;;;;;;;;;;24.96;39.84;93507.66;5058272;28;9058;-62
2023/02/26 11:04:22;;;;;;;;;;;;;;;24.95;39.63;93511.66;5063186;28;9406;-61
2023/02/26 11:06:53;;;;;;;;;;;;;;;24.96;40.06;93502.16;5058263;28;6856;-61
2023/02/26 11:09:27;;;;;;;;;;;;;;;24.97;39.95;93500.88;5035143;28;7022;-60
2023/02/26 11:11:54;;;;;;;;;;;;;;;24.97;40.39;93500.88;5044392;28;7278;-61
2023/02/26 11:14:24;;;;;;;;;;;;;;;24.98;39.96;93504.38;5047597;28;8429;-61
2023/02/26 11:17:00;;;;;;;;;;;;;;;25.00;39.88;93499.84;5046289;28;7244;-61
2023/02/26 11:19:34;;;;;;;;;;;;;;;25.00;40.57;93499.09;5043902;28;7040;-61
2023/02/26 11:22:08;;;;;;;;;;;;;;;25.00;40.28;93499.84;5038048;28;7265;-62
2023/02/26 11:24:43;;;;;;;;;;;;;;;24.99;40.92;93503.84;5039917;28;8743;-61
2023/02/26 11:27:22;;;;;;;;;;;;;;;24.99;40.99;93508.63;5046032;28;8803;-61
2023/02/26 11:29:56;;;;;;;;;;;;;;;25.00;40.35;93507.34;5043330;28;7060;-61
2023/02/26 11:32:32;;;;;;;;;;;;;;;25.01;41.54;93506.78;5056804;28;9018;-61
2023/02/26 11:35:13;;;;;;;;;;;;;;;25.01;41.04;93514.34;5051710;28;7341;-61
2023/02/26 11:37:48;;;;;;;;;;;;;;;25.03;41.13;93517.28;5059683;28;7032;-61
2023/02/26 11:40:31;;;;;;;;;;;;;;;25.04;41.24;93505.75;5053113;28;8960;-61
2023/02/26 11:43:02;;;;;;;;;;;;;;;25.06;40.67;93510.72;5055908;28;8740;-61
2023/02/26 11:45:28;;;;;;;;;;;;;;;25.06;41.30;93507.97;5041759;28;7089;-61
2023/02/26 11:48:03;;;;;;;;;;;;;;;25.07;40.69;93512.22;5039897;28;8987;-60
2023/02/26 11:50:40;;;;;;;;;;;;;;;25.05;40.73;93512.75;5057970;28;7623;-60
2023/02/26 11:53:21;;;;;;;;;;;;;;;25.08;40.89;93510.94;5040120;28;7283;-60
2023/02/26 11:55:52;;;;;;;;;;;;;;;25.08;41.25;93511.69;5054277;28;8758;-60
2023/02/26 11:58:23;;;;;;;;;;;;;;;25.11;40.86;93507.13;5048000;28;7050;-60
2023/02/26 12:00:57;;;;;;;;;;;;;;;25.12;41.17;93509.34;5053787;28;9092;-61
2023/02/26 12:03:28;;;;;;;;;;;;;;;25.10;40.43;93500.88;5049285;28;7037;-61
2023/02/26 12:05:57;;;;;;;;;;;;;;;25.11;41.31;93502.38;5056084;28;7063;-61
2023/02/26 12:08:37;;;;;;;;;;;;;;;25.09;40.37;93504.19;5047343;28;7275;-61
2023/02/26 12:11:31;;;;;;;;;;;;;;;25.08;41.19;93508.19;5064343;28;9360;-60
2023/02/26 12:14:31;;;;;;;;;;;;;;;25.09;40.72;93506.91;5061492;28;7334;-61
2023/02/26 12:17:03;;;;;;;;;;;;;;;25.09;41.35;93510.41;5048684;28;8171;-61
2023/02/26 12:20:14;;;;;;;;;;;;;;;25.12;40.65;93509.34;5051556;28;7039;-61
2023/02/26 12:22:53;;;;;;;;;;;;;;;25.12;40.30;93505.88;5039137;28;9376;-62
2023/02/26 12:25:30;;;;;;;;;;;;;;;25.11;40.66;93512.63;5060932;28;9534;-62
2023/02/26 12:28:24;;;;;;;;;;;;;;;25.09;40.20;93506.91;5032305;28;9046;-62
2023/02/26 12:31:06;;;;;;;;;;;;;;;25.07;40.46;93503.97;5049005;28;7672;-61
2023/02/26 12:33:56;;;;;;;;;;;;;;;25.09;39.91;93506.91;5060748;28;9051;-61
2023/02/26 12:36:53;;;;;;;;;;;;;;;25.07;40.54;93514.97;5050027;28;7250;-61
2023/02/26 12:39:37;;;;;;;;;;;;;;;25.07;40.65;93506.72;5047390;28;8094;-61
2023/02/26 12:42:31;;;;;;;;;;;;;;;25.07;40.66;93517.72;5061506;28;7279;-61
2023/02/26 12:45:31;;;;;;;;;;;;;;;25.06;41.10;93510.72;5050434;28;8731;-61
2023/02/26 12:48:21;;;;;;;;;;;;;;;25.06;40.75;93518.97;5041283;28;7771;-62
2023/02/26 12:51:09;;;;;;;;;;;;;;;25.04;40.10;93529.75;5058126;28;9411;-60
2023/02/26 12:54:00;;;;;;;;;;;;;;;25.04;40.30;93519.50;5059754;28;9064;-61
2023/02/26 12:56:50;;;;;;;;;;;;;;;25.07;40.88;93523.22;5057048;28;8112;-61
2023/02/26 12:59:28;;;;;;;;;;;;;;;25.05;40.00;93529.25;5064070;28;8478;-60
2023/02/26 13:02:13;;;;;;;;;;;;;;;25.05;40.29;93523.00;5050139;28;9286;-60
2023/02/26 13:04:57;;;;;;;;;;;;;;;25.06;40.97;93524.47;5067712;28;7141;-60
2023/02/26 13:07:38;;;;;;;;;;;;;;;25.06;40.69;93525.22;5064901;28;7632;-61
2023/02/26 13:10:28;;;;;;;;;;;;;;;25.06;41.44;93527.97;5049277;28;7038;-60
2023/02/26 13:13:02;;;;;;;;;;;;;;;25.07;41.19;93534.22;5052630;28;6998;-60
2023/02/26 13:16:14;;;;;;;;;;;;;;;25.07;40.38;93525.97;5039713;28;7187;-60
2023/02/26 13:22:14;;;;;;;;;;;;;;;25.06;40.15;93527.22;5046812;28;9440;-61
2023/02/26 13:25:17;;;;;;;;;;;;;;;25.06;40.98;93524.47;5058123;28;9381;-61
2023/02/26 13:28:11;;;;;;;;;;;;;;;25.05;41.07;93526.50;5050191;28;7114;-60
2023/02/26 13:30:51;;;;;;;;;;;;;;;25.02;40.73;93524.81;5056197;28;7787;-61
2023/02/26 13:33:31;;;;;;;;;;;;;;;25.04;40.30;93522.25;5051981;28;9123;-61
2023/02/26 13:36:18;;;;;;;;;;;;;;;25.03;40.79;93520.78;5059944;28;7033;-60
2023/02/26 13:39:23;;;;;;;;;;;;;;;25.04;40.24;93518.75;5053820;28;9583;-61
2023/02/26 13:42:25;;;;;;;;;;;;;;;25.02;40.36;93515.81;5049982;28;9472;-61
2023/02/26 13:45:13;;;;;;;;;;;;;;;25.01;40.37;93522.59;5059993;28;9134;-61
2023/02/26 13:47:55;;;;;;;;;;;;;;;24.99;40.34;93520.34;5049437;28;9349;-61
2023/02/26 13:51:01;;;;;;;;;;;;;;;24.99;40.18;93516.88;5050531;28;8726;-60
2023/02/26 13:53:50;;;;;;;;;;;;;;;25.00;41.24;93524.59;5048433;28;7314;-62
2023/02/26 13:56:23;;;;;;;;;;;;;;;25.01;40.73;93526.06;5053265;28;7639;-62
2023/02/26 13:59:01;;;;;;;;;;;;;;;25.02;41.14;93532.31;5069965;28;8754;-62
2023/02/26 14:01:47;;;;;;;;;;;;;;;25.04;41.10;93527.03;5051259;28;9022;-61
2023/02/26 14:04:48;;;;;;;;;;;;;;;25.04;40.63;93533.25;5065431;28;7474;-61
2023/02/26 14:07:38;;;;;;;;;;;;;;;25.04;40.45;93535.28;5069320;28;7042;-61
2023/02/26 14:10:23;;;;;;;;;;;;;;;25.06;40.94;93538.97;5060381;28;7610;-60
2023/02/26 14:13:10;;;;;;;;;;;;;;;25.08;40.29;93544.69;5058217;28;9448;-61
2023/02/26 14:16:24;;;;;;;;;;;;;;;25.10;40.14;93541.44;5056745;28;9002;-61
2023/02/26 14:19:17;;;;;;;;;;;;;;;25.11;40.78;93527.16;5050692;28;7281;-61
2023/02/26 14:22:33;;;;;;;;;;;;;;;25.18;40.77;93537.53;5048787;28;7217;-60
2023/02/26 14:28:59;;;;;;;;;;;;;;;25.23;40.03;93538.66;5005364;28;7455;-61
2023/02/26 14:31:47;;;;;;;;;;;;;;;25.21;40.38;93544.72;4993869;28;7021;-61
2023/02/26 14:34:56;;;;;;;;;;;;;;;25.22;40.84;93556.47;5011689;28;8290;-61
2023/02/26 14:37:36;;;;;;;;;;;;;;;25.22;40.31;93524.19;4992825;28;8798;-61